createdAt,value
2023-05-23T00:02:20.845Z,77.62
2023-05-23T00:07:22.607Z,76.87
2023-05-23T00:12:24.348Z,77.81
2023-05-23T00:17:27.579Z,77.88
2023-05-23T00:22:29.287Z,77.19
2023-05-23T00:27:30.998Z,76.32
2023-05-23T00:32:35.523Z,77.93
2023-05-23T00:37:38.110Z,78.76
2023-05-23T00:42:39.867Z,80.34
2023-05-23T00:47:42.973Z,80.82
2023-05-23T00:52:45.743Z,80.89
2023-05-23T00:57:47.609Z,80.76
2023-05-23T01:02:53.995Z,81.21
2023-05-23T01:07:56.031Z,82.09
2023-05-23T01:13:06.596Z,81.84
2023-05-23T01:18:10.528Z,81.29
2023-05-23T01:24:00.229Z,82.35
2023-05-23T01:29:10.190Z,81.53
2023-05-23T01:34:12.646Z,81.78
2023-05-23T01:39:14.412Z,81.38
2023-05-23T01:44:18.625Z,81.38
2023-05-23T01:49:22.735Z,81.09
2023-05-23T01:54:24.445Z,81.46
2023-05-23T01:59:27.526Z,81.20
2023-05-23T02:04:31.790Z,81.35
2023-05-23T02:09:33.947Z,80.94
2023-05-23T02:14:37.519Z,80.74
2023-05-23T02:19:39.381Z,81.73
2023-05-23T02:24:41.092Z,81.91
2023-05-23T02:29:44.188Z,82.70
2023-05-23T02:34:46.820Z,82.69
2023-05-23T02:39:48.596Z,82.60
2023-05-23T02:44:51.704Z,82.64
2023-05-23T02:49:53.860Z,82.68
2023-05-23T02:54:55.726Z,81.93
2023-05-23T02:59:58.914Z,81.74
2023-05-23T03:05:00.758Z,81.82
2023-05-23T03:10:02.610Z,82.11
2023-05-23T03:15:08.001Z,82.08
2023-05-23T03:20:12.377Z,84.43
2023-05-23T03:25:15.379Z,85.51
2023-05-23T03:30:19.119Z,86.36
2023-05-23T03:35:21.198Z,84.21
2023-05-23T03:40:23.071Z,83.17
2023-05-23T03:45:26.722Z,83.13
2023-05-23T03:50:28.773Z,81.75
2023-05-23T03:55:32.623Z,81.53
2023-05-23T04:00:36.043Z,81.96
2023-05-23T04:05:40.565Z,81.48
2023-05-23T04:10:43.832Z,81.62
2023-05-23T04:15:48.207Z,82.54
2023-05-23T04:20:50.237Z,81.05
2023-05-23T04:25:52.579Z,80.41
2023-05-23T04:31:03.221Z,80.10
2023-05-23T04:36:09.350Z,79.79
2023-05-23T04:41:16.221Z,79.33
2023-05-23T04:46:41.882Z,78.49
2023-05-23T04:51:51.161Z,77.40
2023-05-23T04:56:56.740Z,76.24
2023-05-23T05:02:01.865Z,77.22
2023-05-23T05:07:04.638Z,75.99
2023-05-23T05:12:06.849Z,75.33
2023-05-23T05:17:10.249Z,74.49
2023-05-23T05:22:26.631Z,73.54
2023-05-23T05:27:28.736Z,72.93
2023-05-23T05:32:33.712Z,72.49
2023-05-23T05:37:36.616Z,72.62
2023-05-23T05:42:38.601Z,72.74
2023-05-23T05:47:41.872Z,71.58
2023-05-23T05:52:43.801Z,71.71
2023-05-23T05:57:46.873Z,72.28
2023-05-23T06:02:51.955Z,71.79
2023-05-23T06:08:07.367Z,72.02
2023-05-23T06:13:09.106Z,72.86
2023-05-23T06:18:13.575Z,73.22
2023-05-23T06:23:15.477Z,73.59
2023-05-23T06:28:17.265Z,73.68
2023-05-23T06:33:22.084Z,72.88
2023-05-23T06:38:26.755Z,74.20
2023-05-23T06:43:28.427Z,75.28
2023-05-23T06:48:45.782Z,75.80
2023-05-23T06:53:47.484Z,76.94
2023-05-23T06:58:49.646Z,77.25
2023-05-23T07:03:53.055Z,77.74
2023-05-23T07:08:54.883Z,77.88
2023-05-23T07:13:58.786Z,78.08
2023-05-23T07:19:13.213Z,77.35
2023-05-23T07:24:23.897Z,77.04
2023-05-23T07:29:28.798Z,77.17
2023-05-23T07:34:32.188Z,78.13
2023-05-23T07:39:36.274Z,78.42
2023-05-23T07:44:39.107Z,78.23
2023-05-23T07:49:42.634Z,79.38
2023-05-23T07:54:44.416Z,78.29
2023-05-23T07:59:47.428Z,78.61
2023-05-23T08:04:51.004Z,77.32
2023-05-23T08:09:53.437Z,78.26
2023-05-23T08:15:14.846Z,77.97
2023-05-23T08:20:22.496Z,79.00
2023-05-23T08:25:25.191Z,80.68
2023-05-23T08:30:27.485Z,81.88
2023-05-23T08:35:34.995Z,81.58
2023-05-23T08:40:37.384Z,83.22
2023-05-23T08:45:46.080Z,82.55
2023-05-23T08:50:51.058Z,82.40
2023-05-23T08:55:56.442Z,82.56
2023-05-23T09:01:01.963Z,82.61
2023-05-23T09:06:06.747Z,82.49
2023-05-23T09:11:12.940Z,81.18
2023-05-23T09:16:16.359Z,81.88
2023-05-23T09:21:24.498Z,82.28
2023-05-23T09:26:33.576Z,80.83
2023-05-23T09:31:36.469Z,81.81
2023-05-23T09:36:40.985Z,82.41
2023-05-23T09:41:48.541Z,82.67
2023-05-23T09:46:52.717Z,82.60
2023-05-23T09:52:00.179Z,83.37
2023-05-23T09:57:02.282Z,83.92
2023-05-23T10:02:04.290Z,83.53
2023-05-23T10:07:14.903Z,82.31
2023-05-23T10:12:44.754Z,83.16
2023-05-23T10:18:03.986Z,83.38
2023-05-23T10:23:07.075Z,84.98
2023-05-23T10:28:08.878Z,84.71
2023-05-23T10:33:11.630Z,84.00
2023-05-23T10:38:21.781Z,83.62
2023-05-23T10:43:26.588Z,83.01
2023-05-23T10:48:37.495Z,82.94
2023-05-23T10:53:41.729Z,83.90
2023-05-23T10:58:43.451Z,82.96
2023-05-23T11:03:54.727Z,81.96
2023-05-23T11:09:07.894Z,81.98
2023-05-23T11:14:09.971Z,81.76
2023-05-23T11:19:27.724Z,81.00
2023-05-23T11:24:50.947Z,80.08
2023-05-23T11:29:57.930Z,79.32
2023-05-23T11:35:00.436Z,79.06
2023-05-23T11:40:27.988Z,79.57
2023-05-23T11:45:30.312Z,80.06
2023-05-23T11:50:32.043Z,80.38
2023-05-23T11:55:35.066Z,81.38
2023-05-23T12:00:43.472Z,80.65
2023-05-23T12:05:45.577Z,78.79
2023-05-23T12:10:52.362Z,78.96
2023-05-23T12:15:54.961Z,79.54
2023-05-23T12:20:59.828Z,79.43
2023-05-23T12:26:04.583Z,79.14
2023-05-23T12:31:10.818Z,78.17
2023-05-23T12:36:12.682Z,77.87
2023-05-23T12:41:19.554Z,77.29
2023-05-23T12:46:21.920Z,76.92
2023-05-23T12:51:23.666Z,76.14
2023-05-23T12:56:26.719Z,73.75
2023-05-23T13:01:28.482Z,72.59
2023-05-23T13:06:30.268Z,67.29
2023-05-23T13:11:33.293Z,66.02
2023-05-23T13:16:36.250Z,63.99
2023-05-23T13:21:37.999Z,64.00
2023-05-23T13:26:41.009Z,60.85
2023-05-23T13:31:42.746Z,62.66
2023-05-23T13:36:44.485Z,65.64
2023-05-23T13:41:47.511Z,63.29
2023-05-23T13:46:49.305Z,60.12
2023-05-23T13:51:51.102Z,57.73
2023-05-23T13:56:54.176Z,55.99
2023-05-23T14:01:56.050Z,57.61
2023-05-23T14:06:57.848Z,59.57
2023-05-23T14:12:01.351Z,58.24
2023-05-23T14:17:03.308Z,56.59
2023-05-23T14:22:05.617Z,55.26
2023-05-23T14:27:10.834Z,53.97
2023-05-23T14:32:13.282Z,53.48
2023-05-23T14:37:15.147Z,53.35
2023-05-23T14:42:18.175Z,51.10
2023-05-23T14:47:19.862Z,51.28
2023-05-23T14:52:21.656Z,52.28
2023-05-23T14:57:24.836Z,50.57
2023-05-23T15:02:26.834Z,50.27
2023-05-23T15:07:28.715Z,50.42
2023-05-23T15:12:31.843Z,48.87
2023-05-23T15:17:33.673Z,49.14
2023-05-23T15:22:39.696Z,50.73
2023-05-23T15:27:44.857Z,49.36
2023-05-23T15:32:47.613Z,49.54
2023-05-23T15:37:49.410Z,50.67
2023-05-23T15:42:52.456Z,48.45
2023-05-23T15:47:54.232Z,49.59
2023-05-23T15:52:56.029Z,47.99
2023-05-23T15:57:59.244Z,48.64
2023-05-23T16:03:01.033Z,46.89
2023-05-23T16:08:02.792Z,46.51
2023-05-23T16:13:05.884Z,46.66
2023-05-23T16:18:07.576Z,46.71
2023-05-23T16:23:09.292Z,47.68
2023-05-23T16:28:12.334Z,47.77
2023-05-23T16:33:14.109Z,49.81
2023-05-23T16:38:15.875Z,49.54
2023-05-23T16:43:18.990Z,51.09
2023-05-23T16:48:21.500Z,50.49
2023-05-23T16:53:23.333Z,52.50
2023-05-23T16:58:26.345Z,51.85
2023-05-23T17:03:29.272Z,49.83
2023-05-23T17:08:31.070Z,49.68
2023-05-23T17:13:34.705Z,48.12
2023-05-23T17:18:36.559Z,48.80
2023-05-23T17:23:38.304Z,49.29
2023-05-23T17:28:42.002Z,50.75
2023-05-23T17:33:44.341Z,49.60
2023-05-23T17:38:46.050Z,48.53
2023-05-23T17:43:49.811Z,48.31
2023-05-23T17:48:51.519Z,48.31
2023-05-23T17:53:53.763Z,48.24
2023-05-23T17:58:57.107Z,48.21
2023-05-23T18:03:58.833Z,47.96
2023-05-23T18:09:00.559Z,47.01
2023-05-23T18:14:03.835Z,47.28
2023-05-23T18:19:05.805Z,46.10
2023-05-23T18:24:08.914Z,47.68
2023-05-23T18:29:12.015Z,49.59
2023-05-23T18:34:13.730Z,48.07
2023-05-23T18:39:15.574Z,48.65
2023-05-23T18:44:20.964Z,48.65
2023-05-23T18:49:23.011Z,49.53
2023-05-23T18:54:24.707Z,49.11
2023-05-23T18:59:27.781Z,49.88
2023-05-23T19:04:29.511Z,49.47
2023-05-23T19:09:31.248Z,50.37
2023-05-23T19:14:34.378Z,51.76
2023-05-23T19:19:37.470Z,52.27
2023-05-23T19:24:39.324Z,52.54
2023-05-23T19:29:42.478Z,52.10
2023-05-23T19:34:44.366Z,51.70
2023-05-23T19:39:46.232Z,51.55
2023-05-23T19:44:50.081Z,52.16
2023-05-23T19:49:51.775Z,52.16
2023-05-23T19:54:53.501Z,52.20
2023-05-23T19:59:56.712Z,53.37
2023-05-23T20:04:58.408Z,52.89
2023-05-23T20:10:00.184Z,52.47
2023-05-23T20:15:03.572Z,53.30
2023-05-23T20:20:06.646Z,52.47
2023-05-23T20:25:08.806Z,52.87
2023-05-23T20:30:13.215Z,53.97
2023-05-23T20:35:14.962Z,54.24
2023-05-23T20:40:17.021Z,54.13
2023-05-23T20:45:20.173Z,54.34
2023-05-23T20:50:22.564Z,54.19
2023-05-23T20:55:24.802Z,54.29
2023-05-23T21:00:28.348Z,53.77
2023-05-23T21:05:30.174Z,53.72
2023-05-23T21:10:32.037Z,53.97
2023-05-23T21:15:35.188Z,53.49
2023-05-23T21:20:36.892Z,53.13
2023-05-23T21:25:38.729Z,53.66
2023-05-23T21:30:42.138Z,53.38
2023-05-23T21:35:45.184Z,54.33
2023-05-23T21:40:46.977Z,54.45
2023-05-23T21:45:50.197Z,55.61
2023-05-23T21:50:51.900Z,55.75
2023-05-23T21:55:53.678Z,55.26
2023-05-23T22:00:56.857Z,55.78
2023-05-23T22:05:58.562Z,55.98
2023-05-23T22:11:00.898Z,55.86
2023-05-23T22:16:05.322Z,56.30
2023-05-23T22:21:07.104Z,56.06
2023-05-23T22:26:08.791Z,56.49
2023-05-23T22:31:13.448Z,55.94
2023-05-23T22:36:15.176Z,56.81
2023-05-23T22:41:17.108Z,57.09
2023-05-23T22:46:20.203Z,57.43
2023-05-23T22:51:22.237Z,57.62
2023-05-23T22:56:24.053Z,57.46
2023-05-23T23:01:27.108Z,57.98
2023-05-23T23:06:29.246Z,57.92
2023-05-23T23:11:31.045Z,57.62
2023-05-23T23:16:34.560Z,57.65
2023-05-23T23:21:37.568Z,58.29
2023-05-23T23:26:39.329Z,57.98
2023-05-23T23:31:42.434Z,57.84
2023-05-23T23:36:44.197Z,58.31
2023-05-23T23:41:45.906Z,57.97
2023-05-23T23:46:49.168Z,58.50
2023-05-23T23:51:50.998Z,58.57
2023-05-23T23:56:52.700Z,58.56
